Time;durP1;ratioP1;P1;durP2;ratioP2;P2;SDS_P1;SDS_P2;PMS_P1;PMS_P2;Temp;Humidity;BMP_temperature;BMP_pressure;BME280_temperature;BME280_humidity;BME280_pressure;Samples;Min_cycle;Max_cycle;Signal;HPM_P1;HPM_P2
2022/06/28 00:00:15;;;;;;;;;;;13.80;99.90;;;;;;5051390;28;20011;-74
2022/06/28 00:02:43;;;;;;;;;;;13.80;99.90;;;;;;5048071;28;19967;-75
2022/06/28 00:05:10;;;;;;;;;;;13.80;99.90;;;;;;5051775;28;19994;-74
2022/06/28 00:07:37;;;;;;;;;;;13.80;99.90;;;;;;5050453;28;19972;-74
2022/06/28 00:10:04;;;;;;;;;;;13.70;99.90;;;;;;5047360;28;19931;-74
2022/06/28 00:12:30;;;;;;;;;;;13.70;99.90;;;;;;5043891;28;19935;-73
2022/06/28 00:17:42;;;;;;;;;;;13.80;99.90;;;;;;5049108;28;19931;-75
2022/06/28 00:20:10;;;;;;;;;;;13.90;99.90;;;;;;5051043;28;19924;-75
2022/06/28 00:22:36;;;;;;;;;;;13.90;99.90;;;;;;5042313;28;19947;-74
2022/06/28 00:25:04;;;;;;;;;;;13.90;99.90;;;;;;5042724;28;20015;-72
2022/06/28 00:27:30;;;;;;;;;;;13.90;99.90;;;;;;5046740;28;20015;-72
2022/06/28 00:29:58;;;;;;;;;;;13.90;99.90;;;;;;5046609;28;20011;-72
2022/06/28 00:32:24;;;;;;;;;;;13.90;99.90;;;;;;5042303;28;20016;-72
2022/06/28 00:34:52;;;;;;;;;;;13.90;99.90;;;;;;5052564;28;20012;-71
2022/06/28 00:37:19;;;;;;;;;;;13.90;99.90;;;;;;5046281;28;20463;-72
2022/06/28 00:39:46;;;;;;;;;;;13.90;99.90;;;;;;5047533;28;19960;-72
2022/06/28 00:42:13;;;;;;;;;;;13.90;99.90;;;;;;5042803;28;20007;-71
2022/06/28 00:44:39;;;;;;;;;;;13.90;99.90;;;;;;5051476;28;19956;-72
2022/06/28 00:47:07;;;;;;;;;;;13.90;99.90;;;;;;5046906;28;19990;-72
2022/06/28 00:49:34;;;;;;;;;;;13.90;99.90;;;;;;5039608;28;20016;-72
2022/06/28 00:52:03;;;;;;;;;;;13.90;99.90;;;;;;5047887;28;19925;-72
2022/06/28 00:54:30;;;;;;;;;;;13.90;99.90;;;;;;5044170;28;20000;-73
2022/06/28 00:56:56;;;;;;;;;;;13.90;99.90;;;;;;5047177;28;19924;-73
2022/06/28 00:59:23;;;;;;;;;;;13.90;99.90;;;;;;5049337;28;20011;-73
2022/06/28 01:01:50;;;;;;;;;;;13.90;99.90;;;;;;5045335;28;19931;-72
2022/06/28 01:04:17;;;;;;;;;;;13.80;99.90;;;;;;5038034;28;19929;-73
2022/06/28 01:06:44;;;;;;;;;;;13.80;99.90;;;;;;5043536;28;20452;-73
2022/06/28 01:09:12;;;;;;;;;;;13.80;99.90;;;;;;5050243;28;19929;-73
2022/06/28 01:11:38;;;;;;;;;;;13.80;99.90;;;;;;5045776;28;20079;-73
2022/06/28 01:14:07;;;;;;;;;;;13.90;99.90;;;;;;5045922;28;20003;-73
2022/06/28 01:16:34;;;;;;;;;;;13.80;99.90;;;;;;5051018;28;19978;-72
2022/06/28 01:19:01;;;;;;;;;;;13.80;99.90;;;;;;5048896;28;19999;-73
2022/06/28 01:21:29;;;;;;;;;;;13.80;99.90;;;;;;5043418;28;20007;-73
2022/06/28 01:23:58;;;;;;;;;;;13.70;99.90;;;;;;5048163;28;19947;-72
2022/06/28 01:26:25;;;;;;;;;;;13.70;99.90;;;;;;5038867;28;20039;-72
2022/06/28 01:28:52;;;;;;;;;;;13.60;99.90;;;;;;5048696;28;20023;-73
2022/06/28 01:31:19;;;;;;;;;;;13.60;99.90;;;;;;5044532;28;19931;-72
2022/06/28 01:33:46;;;;;;;;;;;13.50;99.90;;;;;;5047685;28;20384;-73
2022/06/28 01:36:14;;;;;;;;;;;13.60;99.90;;;;;;5048532;28;19960;-73
2022/06/28 01:38:41;;;;;;;;;;;13.50;99.90;;;;;;5049245;28;20335;-73
2022/06/28 01:41:32;;;;;;;;;;;13.60;99.90;;;;;;5042836;28;19990;-73
2022/06/28 01:43:56;;;;;;;;;;;13.50;99.90;;;;;;5040879;28;19925;-73
2022/06/28 01:46:23;;;;;;;;;;;13.60;99.90;;;;;;5041618;28;20014;-73
2022/06/28 01:48:49;;;;;;;;;;;13.50;99.90;;;;;;5046058;28;20479;-74
2022/06/28 01:51:16;;;;;;;;;;;13.50;99.90;;;;;;5048497;28;20356;-74
2022/06/28 01:53:43;;;;;;;;;;;13.40;99.90;;;;;;5046355;28;20032;-73
2022/06/28 01:56:11;;;;;;;;;;;13.40;99.90;;;;;;5049522;28;19970;-72
2022/06/28 01:58:38;;;;;;;;;;;13.40;99.90;;;;;;5046963;28;19931;-72
2022/06/28 02:01:05;;;;;;;;;;;13.40;99.90;;;;;;5046865;28;19975;-72
2022/06/28 02:03:32;;;;;;;;;;;13.40;99.90;;;;;;5048252;28;19932;-72
2022/06/28 02:05:59;;;;;;;;;;;13.40;99.90;;;;;;5046242;28;20032;-72
2022/06/28 02:08:26;;;;;;;;;;;13.40;99.90;;;;;;5042724;28;19924;-72
2022/06/28 02:10:53;;;;;;;;;;;13.40;99.90;;;;;;5048957;28;20027;-73
2022/06/28 02:13:21;;;;;;;;;;;13.30;99.90;;;;;;5044893;28;20023;-72
2022/06/28 02:15:47;;;;;;;;;;;13.30;99.90;;;;;;5032153;28;19925;-72
2022/06/28 02:18:14;;;;;;;;;;;13.30;99.90;;;;;;5045268;28;20344;-73
2022/06/28 02:20:41;;;;;;;;;;;13.30;99.90;;;;;;5048923;28;19924;-73
2022/06/28 02:23:07;;;;;;;;;;;13.20;99.90;;;;;;5049129;28;19925;-72
2022/06/28 02:25:34;;;;;;;;;;;13.20;99.90;;;;;;5050589;28;20375;-73
2022/06/28 02:28:01;;;;;;;;;;;13.20;99.90;;;;;;5040636;28;20031;-73
2022/06/28 02:30:29;;;;;;;;;;;13.10;99.90;;;;;;5045569;28;19925;-74
2022/06/28 02:32:56;;;;;;;;;;;13.10;99.90;;;;;;5037967;28;19956;-74
2022/06/28 02:40:51;;;;;;;;;;;12.90;99.90;;;;;;5045541;28;20399;-74
2022/06/28 02:43:17;;;;;;;;;;;12.90;99.90;;;;;;5047317;28;19980;-73
2022/06/28 02:45:46;;;;;;;;;;;12.80;99.90;;;;;;5046967;28;19986;-74
2022/06/28 02:48:13;;;;;;;;;;;12.80;99.90;;;;;;5045334;28;19982;-74
2022/06/28 02:50:40;;;;;;;;;;;12.70;99.90;;;;;;5050589;28;19924;-74
2022/06/28 02:53:06;;;;;;;;;;;12.70;99.90;;;;;;5049490;28;19960;-73
2022/06/28 02:55:33;;;;;;;;;;;12.60;99.90;;;;;;5050690;28;20019;-73
2022/06/28 02:58:00;;;;;;;;;;;12.60;99.90;;;;;;5041629;28;19925;-73
2022/06/28 03:00:27;;;;;;;;;;;12.60;99.90;;;;;;5049880;28;20275;-73
2022/06/28 03:02:55;;;;;;;;;;;12.60;99.90;;;;;;5051155;28;20313;-73
2022/06/28 03:05:22;;;;;;;;;;;12.60;99.90;;;;;;5043507;28;20351;-73
2022/06/28 03:07:49;;;;;;;;;;;12.60;99.90;;;;;;5049430;28;20351;-73
2022/06/28 03:10:18;;;;;;;;;;;12.50;99.90;;;;;;5050911;28;19924;-73
2022/06/28 03:12:44;;;;;;;;;;;12.50;99.90;;;;;;5049619;28;19924;-73
2022/06/28 03:15:13;;;;;;;;;;;12.50;99.90;;;;;;5045713;28;20088;-73
2022/06/28 03:17:40;;;;;;;;;;;12.50;99.90;;;;;;5047480;28;19929;-73
2022/06/28 03:20:09;;;;;;;;;;;12.50;99.90;;;;;;5050500;28;19964;-73
2022/06/28 03:22:36;;;;;;;;;;;12.40;99.90;;;;;;5046665;28;20458;-73
2022/06/28 03:25:03;;;;;;;;;;;12.40;99.90;;;;;;5054201;28;19968;-73
2022/06/28 03:27:29;;;;;;;;;;;12.40;99.90;;;;;;5049759;28;19968;-73
2022/06/28 03:29:56;;;;;;;;;;;12.40;99.90;;;;;;5042737;28;20012;-73
2022/06/28 03:32:24;;;;;;;;;;;12.30;99.90;;;;;;5046448;28;20372;-74
2022/06/28 03:34:50;;;;;;;;;;;12.20;99.90;;;;;;5039601;28;19925;-74
2022/06/28 03:37:18;;;;;;;;;;;12.20;99.90;;;;;;5049894;28;19968;-73
2022/06/28 03:39:45;;;;;;;;;;;12.20;99.90;;;;;;5053898;28;20036;-74
2022/06/28 03:42:12;;;;;;;;;;;12.20;99.90;;;;;;5048993;28;20376;-73
2022/06/28 03:44:38;;;;;;;;;;;12.20;99.90;;;;;;5044954;28;20016;-74
2022/06/28 03:47:05;;;;;;;;;;;12.20;99.90;;;;;;5044111;28;19979;-73
2022/06/28 03:49:32;;;;;;;;;;;12.20;99.90;;;;;;5047940;28;19924;-73
2022/06/28 03:51:59;;;;;;;;;;;12.20;99.90;;;;;;5049245;28;20356;-74
2022/06/28 03:54:27;;;;;;;;;;;12.20;99.90;;;;;;5052250;28;20000;-73
2022/06/28 03:56:54;;;;;;;;;;;12.20;99.90;;;;;;5046390;28;19968;-73
2022/06/28 03:59:21;;;;;;;;;;;12.20;99.90;;;;;;5050279;28;20391;-73
2022/06/28 04:01:48;;;;;;;;;;;12.30;99.90;;;;;;5039800;28;19931;-74
2022/06/28 04:04:14;;;;;;;;;;;12.30;99.90;;;;;;5046533;28;20012;-73
2022/06/28 04:06:42;;;;;;;;;;;12.40;99.90;;;;;;5050736;28;19931;-73
2022/06/28 04:09:09;;;;;;;;;;;12.40;99.90;;;;;;5049844;28;20352;-73
2022/06/28 04:11:37;;;;;;;;;;;12.40;99.90;;;;;;5045331;28;20020;-73
2022/06/28 04:14:03;;;;;;;;;;;12.50;99.90;;;;;;5041003;28;19928;-73
2022/06/28 04:16:32;;;;;;;;;;;12.50;99.90;;;;;;5042431;28;19951;-74
2022/06/28 04:18:58;;;;;;;;;;;12.50;99.90;;;;;;5043664;28;20019;-74
2022/06/28 04:21:25;;;;;;;;;;;12.50;99.90;;;;;;5044303;28;20023;-74
2022/06/28 04:23:52;;;;;;;;;;;12.60;99.90;;;;;;5048599;28;19986;-74
2022/06/28 04:26:19;;;;;;;;;;;12.60;99.90;;;;;;5046549;28;20012;-73
2022/06/28 04:28:47;;;;;;;;;;;12.60;99.90;;;;;;5044617;28;20283;-73
2022/06/28 04:31:15;;;;;;;;;;;12.60;99.90;;;;;;5042035;28;20024;-72
2022/06/28 04:33:42;;;;;;;;;;;12.70;99.90;;;;;;5049398;28;19939;-73
2022/06/28 04:36:09;;;;;;;;;;;12.70;99.90;;;;;;5050550;28;19928;-73
2022/06/28 04:38:35;;;;;;;;;;;12.70;99.90;;;;;;5047362;28;19964;-73
2022/06/28 04:41:02;;;;;;;;;;;12.70;99.90;;;;;;5048860;28;19974;-73
2022/06/28 04:43:29;;;;;;;;;;;12.80;99.90;;;;;;5045359;28;20019;-73
2022/06/28 04:45:57;;;;;;;;;;;12.90;99.90;;;;;;5045811;28;19979;-73
2022/06/28 04:48:24;;;;;;;;;;;12.90;99.90;;;;;;5040778;28;19968;-74
2022/06/28 04:50:50;;;;;;;;;;;12.90;99.90;;;;;;5050105;28;20033;-72
2022/06/28 04:53:17;;;;;;;;;;;12.90;99.90;;;;;;5040678;28;19925;-72
2022/06/28 04:55:44;;;;;;;;;;;13.00;99.90;;;;;;5038827;28;20023;-74
2022/06/28 04:58:11;;;;;;;;;;;13.10;99.90;;;;;;5048570;28;19929;-74
2022/06/28 05:00:37;;;;;;;;;;;13.10;99.90;;;;;;5048086;28;19929;-73
2022/06/28 05:03:05;;;;;;;;;;;13.10;99.90;;;;;;5046891;28;19925;-72
2022/06/28 05:05:32;;;;;;;;;;;13.20;99.90;;;;;;5047981;28;20011;-74
2022/06/28 05:07:59;;;;;;;;;;;13.20;99.90;;;;;;5040040;28;19964;-75
2022/06/28 05:10:26;;;;;;;;;;;13.30;99.90;;;;;;5037767;28;19957;-71
2022/06/28 05:12:52;;;;;;;;;;;13.30;99.90;;;;;;5038569;28;19986;-73
2022/06/28 05:15:19;;;;;;;;;;;13.50;99.90;;;;;;5040266;28;19929;-69
2022/06/28 05:17:46;;;;;;;;;;;13.50;99.90;;;;;;5038346;28;19925;-70
2022/06/28 05:20:14;;;;;;;;;;;13.60;99.90;;;;;;5046443;28;20020;-71
2022/06/28 05:22:40;;;;;;;;;;;13.70;99.90;;;;;;5047825;28;19933;-72
2022/06/28 05:25:07;;;;;;;;;;;13.70;99.90;;;;;;5047657;28;19932;-71
2022/06/28 05:27:34;;;;;;;;;;;13.70;99.90;;;;;;5047829;28;19976;-72
2022/06/28 05:30:01;;;;;;;;;;;13.80;99.90;;;;;;5049911;28;20011;-72
2022/06/28 05:32:29;;;;;;;;;;;13.90;99.90;;;;;;5044115;28;19979;-72
2022/06/28 05:34:55;;;;;;;;;;;13.90;99.90;;;;;;5038660;28;19933;-72
2022/06/28 05:37:23;;;;;;;;;;;14.00;99.90;;;;;;5041195;28;20412;-72
2022/06/28 05:39:50;;;;;;;;;;;14.10;99.90;;;;;;5048067;28;19972;-71
2022/06/28 05:42:17;;;;;;;;;;;14.20;99.90;;;;;;5040179;28;19932;-71
2022/06/28 05:44:44;;;;;;;;;;;14.30;99.90;;;;;;5037785;28;20007;-71
2022/06/28 05:47:11;;;;;;;;;;;14.30;99.90;;;;;;5038269;28;19929;-71
2022/06/28 05:49:39;;;;;;;;;;;14.40;99.90;;;;;;5044416;28;20388;-71
2022/06/28 05:52:06;;;;;;;;;;;14.50;99.90;;;;;;5036310;28;20299;-71
2022/06/28 05:54:34;;;;;;;;;;;14.60;99.90;;;;;;5037760;28;20321;-71
2022/06/28 05:57:01;;;;;;;;;;;14.60;99.90;;;;;;5037632;28;20408;-71
2022/06/28 05:59:28;;;;;;;;;;;14.70;99.90;;;;;;5038785;28;20008;-71
2022/06/28 06:01:55;;;;;;;;;;;14.90;99.90;;;;;;5037077;28;19932;-71
2022/06/28 06:04:22;;;;;;;;;;;16.00;99.90;;;;;;5036790;28;19933;-71
2022/06/28 06:06:49;;;;;;;;;;;18.20;99.90;;;;;;5036865;28;19986;-73
2022/06/28 06:09:15;;;;;;;;;;;20.10;97.00;;;;;;5036668;28;19937;-72
2022/06/28 06:11:44;;;;;;;;;;;21.50;91.80;;;;;;5038276;28;20039;-71
2022/06/28 06:14:11;;;;;;;;;;;23.20;77.50;;;;;;5042082;28;19928;-72
2022/06/28 06:16:38;;;;;;;;;;;24.20;60.50;;;;;;5033437;28;19932;-72
2022/06/28 06:19:05;;;;;;;;;;;25.20;54.70;;;;;;5039692;28;20288;-72
2022/06/28 06:21:31;;;;;;;;;;;26.30;47.10;;;;;;5039008;28;19964;-71
2022/06/28 06:23:58;;;;;;;;;;;26.60;39.70;;;;;;5048098;28;20011;-70
2022/06/28 06:26:25;;;;;;;;;;;26.90;38.80;;;;;;5039534;28;21982;-71
2022/06/28 06:28:53;;;;;;;;;;;26.80;32.90;;;;;;5039214;28;19925;-71
2022/06/28 06:31:20;;;;;;;;;;;26.10;34.30;;;;;;5040081;28;20007;-73
2022/06/28 06:33:47;;;;;;;;;;;26.70;30.30;;;;;;5045330;28;19925;-72
2022/06/28 06:36:13;;;;;;;;;;;26.80;29.20;;;;;;5041400;28;19995;-73
2022/06/28 06:38:40;;;;;;;;;;;27.10;27.60;;;;;;5038075;28;20232;-73
2022/06/28 06:41:07;;;;;;;;;;;26.60;26.70;;;;;;5039737;28;19925;-71
2022/06/28 06:43:33;;;;;;;;;;;25.60;29.40;;;;;;5039917;28;19933;-72
2022/06/28 06:46:02;;;;;;;;;;;25.90;27.90;;;;;;5042052;28;19928;-72
2022/06/28 06:48:29;;;;;;;;;;;25.80;27.60;;;;;;5038580;28;20045;-73
2022/06/28 06:50:55;;;;;;;;;;;26.70;26.70;;;;;;5041939;28;19939;-72
2022/06/28 06:53:23;;;;;;;;;;;27.30;25.70;;;;;;5040157;28;19972;-72
2022/06/28 06:55:50;;;;;;;;;;;26.70;24.10;;;;;;5050508;28;19925;-72
2022/06/28 06:58:16;;;;;;;;;;;25.00;25.70;;;;;;5039484;28;20027;-71
2022/06/28 07:00:43;;;;;;;;;;;23.90;27.60;;;;;;5046618;28;19935;-71
2022/06/28 07:03:11;;;;;;;;;;;23.30;28.70;;;;;;5046218;28;20423;-72
2022/06/28 07:05:38;;;;;;;;;;;24.00;28.80;;;;;;5047108;28;20035;-72
2022/06/28 07:08:05;;;;;;;;;;;25.60;26.60;;;;;;5047865;28;20379;-72
2022/06/28 07:10:31;;;;;;;;;;;26.70;23.70;;;;;;5049531;28;20024;-72
2022/06/28 07:12:58;;;;;;;;;;;27.50;22.40;;;;;;5044935;28;19972;-72
2022/06/28 07:15:25;;;;;;;;;;;28.70;20.50;;;;;;5044351;28;20420;-72
2022/06/28 07:17:51;;;;;;;;;;;29.50;18.10;;;;;;5037672;28;19932;-73
2022/06/28 07:20:20;;;;;;;;;;;29.70;17.00;;;;;;5042498;28;19932;-73
2022/06/28 07:22:46;;;;;;;;;;;30.30;15.30;;;;;;5044899;28;20400;-73
2022/06/28 07:25:13;;;;;;;;;;;30.40;14.00;;;;;;5041664;28;19925;-72
2022/06/28 07:27:41;;;;;;;;;;;30.20;13.70;;;;;;5045094;28;20012;-73
2022/06/28 07:30:09;;;;;;;;;;;30.10;13.20;;;;;;5043877;28;19925;-72
2022/06/28 07:32:35;;;;;;;;;;;30.60;11.40;;;;;;5039148;28;20015;-72
2022/06/28 07:35:02;;;;;;;;;;;30.40;9.50;;;;;;5035681;28;20095;-72
2022/06/28 07:37:30;;;;;;;;;;;30.10;10.50;;;;;;5037919;28;19931;-73
2022/06/28 07:39:57;;;;;;;;;;;30.30;10.30;;;;;;5039788;28;19943;-72
2022/06/28 07:42:24;;;;;;;;;;;29.90;9.50;;;;;;5043482;28;19983;-72
2022/06/28 07:44:50;;;;;;;;;;;29.20;6.90;;;;;;5038457;28;20305;-73
2022/06/28 07:47:17;;;;;;;;;;;29.80;9.20;;;;;;5041013;28;20459;-72
2022/06/28 07:52:37;;;;;;;;;;;29.90;8.40;;;;;;5042818;28;19932;-73
2022/06/28 07:55:06;;;;;;;;;;;30.60;6.40;;;;;;5044482;28;19968;-72
2022/06/28 07:57:33;;;;;;;;;;;30.00;6.70;;;;;;5040672;28;19991;-73
2022/06/28 08:00:00;;;;;;;;;;;30.50;6.10;;;;;;5043979;28;19960;-73
2022/06/28 08:02:28;;;;;;;;;;;29.60;6.60;;;;;;5044282;28;20012;-72
2022/06/28 08:04:54;;;;;;;;;;;30.00;6.90;;;;;;5032823;28;20003;-73
2022/06/28 08:07:21;;;;;;;;;;;30.50;6.00;;;;;;5044469;28;19925;-73
2022/06/28 08:09:48;;;;;;;;;;;30.70;6.20;;;;;;5038828;28;20020;-73
2022/06/28 08:12:16;;;;;;;;;;;31.00;5.30;;;;;;5039153;28;19964;-73
2022/06/28 08:14:43;;;;;;;;;;;30.80;4.90;;;;;;5041182;28;20111;-73
2022/06/28 08:17:10;;;;;;;;;;;30.90;4.20;;;;;;5039421;28;20415;-73
2022/06/28 08:19:36;;;;;;;;;;;30.30;4.30;;;;;;5040676;28;20473;-72
2022/06/28 08:22:03;;;;;;;;;;;30.10;4.70;;;;;;5037803;28;19931;-73
2022/06/28 08:24:31;;;;;;;;;;;30.60;4.10;;;;;;5039159;28;20012;-72
2022/06/28 08:26:58;;;;;;;;;;;30.10;4.40;;;;;;5035171;28;19981;-74
2022/06/28 08:29:26;;;;;;;;;;;30.00;4.50;;;;;;5034369;28;19990;-73
2022/06/28 08:31:52;;;;;;;;;;;30.10;5.00;;;;;;5038112;28;20023;-73
2022/06/28 08:34:19;;;;;;;;;;;30.50;5.00;;;;;;5035058;28;19961;-72
2022/06/28 08:36:46;;;;;;;;;;;30.90;4.60;;;;;;5037237;28;20394;-73
2022/06/28 08:39:13;;;;;;;;;;;30.70;4.30;;;;;;5040903;28;19982;-73
2022/06/28 08:41:41;;;;;;;;;;;31.00;4.10;;;;;;5035427;28;19929;-72
2022/06/28 08:44:09;;;;;;;;;;;31.00;3.60;;;;;;5035504;28;20023;-73
2022/06/28 08:46:38;;;;;;;;;;;30.70;3.80;;;;;;5034691;28;20303;-72
2022/06/28 08:49:05;;;;;;;;;;;30.40;4.70;;;;;;5038495;28;20012;-73
2022/06/28 08:51:33;;;;;;;;;;;30.00;5.20;;;;;;5037483;28;20390;-75
2022/06/28 08:54:00;;;;;;;;;;;30.10;5.20;;;;;;5036607;28;20299;-72
2022/06/28 08:56:27;;;;;;;;;;;30.10;5.40;;;;;;5040815;28;19943;-73
2022/06/28 08:58:57;;;;;;;;;;;30.50;4.40;;;;;;5037350;28;19925;-74
2022/06/28 09:01:23;;;;;;;;;;;30.80;4.10;;;;;;5032722;28;20095;-74
2022/06/28 09:03:53;;;;;;;;;;;30.00;4.90;;;;;;5036373;28;20417;-73
2022/06/28 09:06:20;;;;;;;;;;;29.50;5.50;;;;;;5032747;28;20038;-74
2022/06/28 09:08:46;;;;;;;;;;;29.80;5.90;;;;;;5040398;28;19936;-73
2022/06/28 09:11:13;;;;;;;;;;;29.90;5.70;;;;;;5041254;28;20023;-73
2022/06/28 09:13:41;;;;;;;;;;;30.50;4.70;;;;;;5030962;28;19933;-73
2022/06/28 09:16:08;;;;;;;;;;;30.90;4.70;;;;;;5038631;28;20059;-73
2022/06/28 09:18:44;;;;;;;;;;;30.70;4.20;;;;;;5038158;28;19964;-73
2022/06/28 09:21:16;;;;;;;;;;;30.40;4.40;;;;;;5039990;28;20041;-73
2022/06/28 09:23:44;;;;;;;;;;;30.90;4.80;;;;;;5040211;28;20045;-73
2022/06/28 09:26:12;;;;;;;;;;;31.50;3.80;;;;;;5036647;28;22352;-75
2022/06/28 09:28:40;;;;;;;;;;;31.60;3.30;;;;;;5038536;28;20265;-74
2022/06/28 09:31:07;;;;;;;;;;;;;;;;;;5035987;28;19924;-73
2022/06/28 09:33:34;;;;;;;;;;;30.50;4.10;;;;;;5037095;28;19992;-73
2022/06/28 09:36:01;;;;;;;;;;;31.10;4.10;;;;;;5037192;28;20034;-74
2022/06/28 09:38:32;;;;;;;;;;;30.30;4.50;;;;;;5037089;28;19987;-73
2022/06/28 09:40:59;;;;;;;;;;;30.50;5.00;;;;;;5037255;28;19925;-73
2022/06/28 09:43:30;;;;;;;;;;;30.80;4.80;;;;;;5035608;28;20446;-73
2022/06/28 09:45:57;;;;;;;;;;;30.90;4.30;;;;;;5037796;28;20384;-73
2022/06/28 09:48:24;;;;;;;;;;;30.00;5.20;;;;;;5036781;28;19986;-73
2022/06/28 09:50:57;;;;;;;;;;;29.70;5.60;;;;;;5042597;28;19929;-73
2022/06/28 09:53:26;;;;;;;;;;;29.50;6.10;;;;;;5040943;28;20481;-72
2022/06/28 09:55:54;;;;;;;;;;;29.80;5.80;;;;;;5045955;28;20407;-70
2022/06/28 09:58:22;;;;;;;;;;;30.40;4.50;;;;;;5050428;28;19997;-70
2022/06/28 10:00:50;;;;;;;;;;;30.60;4.10;;;;;;5046166;28;19924;-72
2022/06/28 10:03:17;;;;;;;;;;;30.60;4.60;;;;;;5051675;28;20011;-73
2022/06/28 10:05:44;;;;;;;;;;;30.50;4.20;;;;;;5048112;28;19969;-73
2022/06/28 10:08:11;;;;;;;;;;;30.30;4.30;;;;;;5048454;28;19976;-73
2022/06/28 10:10:40;;;;;;;;;;;30.10;4.60;;;;;;5050229;28;19924;-73
2022/06/28 10:15:55;;;;;;;;;;;29.70;5.20;;;;;;5050774;28;19983;-73
2022/06/28 10:18:23;;;;;;;;;;;27.60;6.70;;;;;;5042538;28;20014;-73
2022/06/28 10:20:50;;;;;;;;;;;26.60;8.60;;;;;;5039860;28;20020;-73
2022/06/28 10:23:24;;;;;;;;;;;26.30;9.90;;;;;;5038094;28;19928;-74
2022/06/28 10:26:04;;;;;;;;;;;25.70;10.00;;;;;;5042546;28;20008;-74
2022/06/28 10:28:37;;;;;;;;;;;25.20;10.30;;;;;;5044778;28;20028;-74
2022/06/28 10:31:22;;;;;;;;;;;25.10;11.50;;;;;;5049820;28;20019;-73
2022/06/28 10:33:49;;;;;;;;;;;24.60;11.60;;;;;;5045504;28;19925;-73
2022/06/28 10:36:17;;;;;;;;;;;24.70;12.40;;;;;;5034711;28;19936;-74
2022/06/28 10:38:58;;;;;;;;;;;24.60;12.70;;;;;;5041619;28;19924;-73
2022/06/28 10:41:35;;;;;;;;;;;23.90;13.80;;;;;;5039086;28;20016;-73
2022/06/28 10:44:13;;;;;;;;;;;24.20;13.90;;;;;;5037109;28;19925;-74
2022/06/28 10:46:42;;;;;;;;;;;24.20;13.00;;;;;;5035764;28;19925;-73
2022/06/28 10:49:10;;;;;;;;;;;24.30;13.80;;;;;;5037300;28;19940;-72
2022/06/28 10:51:41;;;;;;;;;;;23.90;14.90;;;;;;5045871;28;19925;-72
2022/06/28 10:54:08;;;;;;;;;;;24.30;14.60;;;;;;5046812;28;19936;-72
2022/06/28 10:56:39;;;;;;;;;;;24.40;14.20;;;;;;5040369;28;19931;-72
2022/06/28 10:59:08;;;;;;;;;;;24.50;14.10;;;;;;5047807;28;19935;-72
2022/06/28 11:01:53;;;;;;;;;;;25.10;13.50;;;;;;5051801;28;19928;-73
2022/06/28 11:04:24;;;;;;;;;;;25.30;12.70;;;;;;5049033;28;19932;-74
2022/06/28 11:06:52;;;;;;;;;;;24.90;13.00;;;;;;5049484;28;19972;-75
2022/06/28 11:09:23;;;;;;;;;;;25.20;12.90;;;;;;5042598;28;19925;-71
2022/06/28 11:12:05;;;;;;;;;;;24.80;14.30;;;;;;5042044;28;19986;-72
2022/06/28 11:14:35;;;;;;;;;;;25.10;14.10;;;;;;5041184;28;19936;-73
2022/06/28 11:17:06;;;;;;;;;;;25.30;13.10;;;;;;5038138;28;20015;-72
2022/06/28 11:19:33;;;;;;;;;;;25.70;13.20;;;;;;5044138;28;20319;-72
2022/06/28 11:22:00;;;;;;;;;;;26.00;13.40;;;;;;5043482;28;19964;-73
2022/06/28 11:24:27;;;;;;;;;;;25.40;13.60;;;;;;5038546;28;19991;-74
2022/06/28 11:29:39;;;;;;;;;;;25.70;12.80;;;;;;5038753;28;19932;-73
2022/06/28 11:32:15;;;;;;;;;;;25.30;13.30;;;;;;5033649;28;20022;-71
2022/06/28 11:34:42;;;;;;;;;;;25.40;13.70;;;;;;5042987;28;19972;-73
2022/06/28 11:37:09;;;;;;;;;;;25.70;12.70;;;;;;5041507;28;19925;-72
2022/06/28 11:39:36;;;;;;;;;;;25.80;13.40;;;;;;5034505;28;19987;-72
2022/06/28 11:42:02;;;;;;;;;;;25.90;12.30;;;;;;5051248;28;20406;-72
2022/06/28 11:44:29;;;;;;;;;;;25.90;12.70;;;;;;5048006;28;20047;-73
2022/06/28 11:46:57;;;;;;;;;;;25.80;12.50;;;;;;5050453;28;20008;-72
2022/06/28 11:49:28;;;;;;;;;;;25.90;12.80;;;;;;5051492;28;20498;-72
2022/06/28 11:51:55;;;;;;;;;;;25.70;13.40;;;;;;5040408;28;19980;-73
2022/06/28 11:54:21;;;;;;;;;;;25.60;12.60;;;;;;5045141;28;20391;-72
2022/06/28 11:56:49;;;;;;;;;;;25.50;13.00;;;;;;5053575;28;19964;-72
2022/06/28 11:59:17;;;;;;;;;;;25.20;13.40;;;;;;5050158;28;20070;-72
2022/06/28 12:01:44;;;;;;;;;;;25.20;13.00;;;;;;5047603;28;19932;-73
2022/06/28 12:04:20;;;;;;;;;;;25.40;13.60;;;;;;5046540;28;20074;-73
2022/06/28 12:06:47;;;;;;;;;;;25.70;12.80;;;;;;5040512;28;19925;-73
2022/06/28 12:09:15;;;;;;;;;;;25.50;13.10;;;;;;5047739;28;19952;-73
2022/06/28 12:11:43;;;;;;;;;;;25.30;13.30;;;;;;5049375;28;19925;-73
2022/06/28 12:14:12;;;;;;;;;;;25.10;14.40;;;;;;5049281;28;19928;-72
2022/06/28 12:16:40;;;;;;;;;;;25.40;12.80;;;;;;5046855;28;19931;-73
2022/06/28 12:19:08;;;;;;;;;;;25.30;12.80;;;;;;5042749;28;20063;-73
2022/06/28 12:21:38;;;;;;;;;;;25.30;12.90;;;;;;5036020;28;20339;-74
2022/06/28 12:24:05;;;;;;;;;;;25.40;14.10;;;;;;5041615;28;19925;-73
2022/06/28 12:26:39;;;;;;;;;;;25.10;13.10;;;;;;5046361;28;19960;-72
2022/06/28 12:29:06;;;;;;;;;;;25.30;13.20;;;;;;5049668;28;19963;-72
2022/06/28 12:31:33;;;;;;;;;;;25.50;12.50;;;;;;5042836;28;20008;-73
2022/06/28 12:34:04;;;;;;;;;;;25.60;12.70;;;;;;5037661;28;20433;-73
2022/06/28 12:36:31;;;;;;;;;;;25.90;12.30;;;;;;5049012;28;19979;-73
2022/06/28 12:38:59;;;;;;;;;;;25.70;11.80;;;;;;5046621;28;19929;-73
2022/06/28 12:41:26;;;;;;;;;;;25.70;11.70;;;;;;5051617;28;19932;-72
2022/06/28 12:43:53;;;;;;;;;;;26.00;12.20;;;;;;5049611;28;20392;-73
2022/06/28 12:46:19;;;;;;;;;;;25.90;11.70;;;;;;5052436;28;20396;-72
2022/06/28 12:48:46;;;;;;;;;;;26.20;11.30;;;;;;5050838;28;20427;-73
2022/06/28 12:51:13;;;;;;;;;;;26.40;11.60;;;;;;5049757;28;20628;-73
2022/06/28 12:53:40;;;;;;;;;;;26.60;11.10;;;;;;5049064;28;20272;-73
2022/06/28 12:56:08;;;;;;;;;;;26.60;11.50;;;;;;5051989;28;19971;-71
2022/06/28 12:58:34;;;;;;;;;;;26.60;10.80;;;;;;5037830;28;20384;-76
2022/06/28 13:01:01;;;;;;;;;;;27.00;11.10;;;;;;5035138;28;20009;-72
2022/06/28 13:03:28;;;;;;;;;;;27.00;10.80;;;;;;5050619;28;20162;-72
2022/06/28 13:05:55;;;;;;;;;;;26.80;10.20;;;;;;5051344;28;19931;-72
2022/06/28 13:08:22;;;;;;;;;;;26.40;10.70;;;;;;5050590;28;19936;-73
2022/06/28 13:10:48;;;;;;;;;;;26.40;10.40;;;;;;5051960;28;20037;-70
2022/06/28 13:13:20;;;;;;;;;;;25.80;10.70;;;;;;5048916;28;20384;-70
2022/06/28 13:15:47;;;;;;;;;;;25.70;11.10;;;;;;5051148;28;19929;-72
2022/06/28 13:18:14;;;;;;;;;;;25.30;13.40;;;;;;5050175;28;20027;-72
2022/06/28 13:20:40;;;;;;;;;;;24.80;12.90;;;;;;5051714;28;19960;-71
2022/06/28 13:23:07;;;;;;;;;;;24.70;14.10;;;;;;5050163;28;19932;-72
2022/06/28 13:25:34;;;;;;;;;;;24.40;13.30;;;;;;5049234;28;20315;-72
2022/06/28 13:28:01;;;;;;;;;;;24.40;14.60;;;;;;5048966;28;20339;-72
2022/06/28 13:30:29;;;;;;;;;;;24.80;13.20;;;;;;5050469;28;20380;-72
2022/06/28 13:32:56;;;;;;;;;;;25.20;12.40;;;;;;5050109;28;20035;-72
2022/06/28 13:35:23;;;;;;;;;;;25.30;12.10;;;;;;5050236;28;19971;-72
2022/06/28 13:37:49;;;;;;;;;;;25.80;11.80;;;;;;5049912;28;20016;-72
2022/06/28 13:40:16;;;;;;;;;;;26.00;11.70;;;;;;5050403;28;19924;-71
2022/06/28 13:42:43;;;;;;;;;;;26.40;10.20;;;;;;5048719;28;19964;-72
2022/06/28 13:45:10;;;;;;;;;;;26.50;10.30;;;;;;5050743;28;19929;-72
2022/06/28 13:47:38;;;;;;;;;;;26.60;10.90;;;;;;5049915;28;19925;-72
2022/06/28 13:50:05;;;;;;;;;;;26.50;12.00;;;;;;5051771;28;19978;-72
2022/06/28 13:52:32;;;;;;;;;;;25.50;12.70;;;;;;5049683;28;19995;-72
2022/06/28 13:54:58;;;;;;;;;;;24.80;15.00;;;;;;5050570;28;20020;-73
2022/06/28 13:57:25;;;;;;;;;;;24.20;15.30;;;;;;5049090;28;19965;-72
2022/06/28 13:59:55;;;;;;;;;;;24.10;16.00;;;;;;5047421;28;19960;-73
2022/06/28 14:02:22;;;;;;;;;;;24.70;15.30;;;;;;5045785;28;19925;-73
2022/06/28 14:04:50;;;;;;;;;;;25.30;13.80;;;;;;5050089;28;19975;-72
2022/06/28 14:07:17;;;;;;;;;;;25.20;13.50;;;;;;5052137;28;20019;-73
2022/06/28 14:09:43;;;;;;;;;;;25.00;13.40;;;;;;5050122;28;19924;-73
2022/06/28 14:12:10;;;;;;;;;;;24.90;14.10;;;;;;5051585;28;19924;-72
2022/06/28 14:14:37;;;;;;;;;;;25.00;14.40;;;;;;5049197;28;19925;-73
2022/06/28 14:17:04;;;;;;;;;;;24.90;14.20;;;;;;5048976;28;20251;-73
2022/06/28 14:19:31;;;;;;;;;;;25.00;14.20;;;;;;5047294;28;20340;-73
2022/06/28 14:21:59;;;;;;;;;;;24.50;15.50;;;;;;5050087;28;20372;-73
2022/06/28 14:24:26;;;;;;;;;;;24.50;16.10;;;;;;5049651;28;19924;-73
2022/06/28 14:26:54;;;;;;;;;;;24.30;16.40;;;;;;5051513;28;19931;-73
2022/06/28 14:29:23;;;;;;;;;;;24.10;16.60;;;;;;5048812;28;20011;-74
2022/06/28 14:31:49;;;;;;;;;;;24.50;15.00;;;;;;5051493;28;19936;-74
2022/06/28 14:34:16;;;;;;;;;;;24.80;14.80;;;;;;5049596;28;19925;-73
2022/06/28 14:36:44;;;;;;;;;;;25.10;13.60;;;;;;5051525;28;19932;-73